sensor_id;sensor_type;location;lat;lon;timestamp;temperature;humidity
70456;DHT22;57916;51.996;5.180;2023-02-03T00:01:52;12.40;74.20
70456;DHT22;57916;51.996;5.180;2023-02-03T00:04:19;12.40;74.20
70456;DHT22;57916;51.996;5.180;2023-02-03T00:06:46;12.40;74.20
70456;DHT22;57916;51.996;5.180;2023-02-03T00:09:14;12.40;74.40
70456;DHT22;57916;51.996;5.180;2023-02-03T00:11:41;12.40;74.20
70456;DHT22;57916;51.996;5.180;2023-02-03T00:14:08;12.40;74.20
70456;DHT22;57916;51.996;5.180;2023-02-03T00:16:34;12.50;74.20
70456;DHT22;57916;51.996;5.180;2023-02-03T00:19:02;12.40;74.20
70456;DHT22;57916;51.996;5.180;2023-02-03T00:21:29;12.50;74.20
70456;DHT22;57916;51.996;5.180;2023-02-03T00:23:56;12.40;74.10
70456;DHT22;57916;51.996;5.180;2023-02-03T00:26:23;12.50;74.20
70456;DHT22;57916;51.996;5.180;2023-02-03T00:28:51;12.50;74.10
70456;DHT22;57916;51.996;5.180;2023-02-03T00:31:20;12.50;74.20
70456;DHT22;57916;51.996;5.180;2023-02-03T00:33:53;12.40;74.10
70456;DHT22;57916;51.996;5.180;2023-02-03T00:36:21;12.40;74.00
70456;DHT22;57916;51.996;5.180;2023-02-03T00:38:49;12.50;74.00
70456;DHT22;57916;51.996;5.180;2023-02-03T00:41:17;12.50;74.00
70456;DHT22;57916;51.996;5.180;2023-02-03T00:43:47;12.50;74.00
70456;DHT22;57916;51.996;5.180;2023-02-03T00:46:14;12.50;73.90
70456;DHT22;57916;51.996;5.180;2023-02-03T00:48:41;12.50;73.90
70456;DHT22;57916;51.996;5.180;2023-02-03T00:51:08;12.50;73.90
70456;DHT22;57916;51.996;5.180;2023-02-03T00:53:35;12.50;74.00
70456;DHT22;57916;51.996;5.180;2023-02-03T00:56:02;12.40;73.80
70456;DHT22;57916;51.996;5.180;2023-02-03T00:58:29;12.50;73.80
70456;DHT22;57916;51.996;5.180;2023-02-03T01:00:56;12.50;73.80
70456;DHT22;57916;51.996;5.180;2023-02-03T01:03:24;12.50;73.70
70456;DHT22;57916;51.996;5.180;2023-02-03T01:05:51;12.50;73.60
70456;DHT22;57916;51.996;5.180;2023-02-03T01:08:18;12.50;73.60
70456;DHT22;57916;51.996;5.180;2023-02-03T01:10:45;12.50;73.60
70456;DHT22;57916;51.996;5.180;2023-02-03T01:13:12;12.50;73.60
70456;DHT22;57916;51.996;5.180;2023-02-03T01:15:46;12.50;73.50
70456;DHT22;57916;51.996;5.180;2023-02-03T01:18:13;12.50;73.40
70456;DHT22;57916;51.996;5.180;2023-02-03T01:20:42;12.60;73.40
70456;DHT22;57916;51.996;5.180;2023-02-03T01:23:09;12.50;73.40
70456;DHT22;57916;51.996;5.180;2023-02-03T01:25:36;12.50;73.30
70456;DHT22;57916;51.996;5.180;2023-02-03T01:28:03;12.50;73.40
70456;DHT22;57916;51.996;5.180;2023-02-03T01:30:31;12.50;73.40
70456;DHT22;57916;51.996;5.180;2023-02-03T01:32:58;12.50;73.40
70456;DHT22;57916;51.996;5.180;2023-02-03T01:35:25;12.50;73.40
70456;DHT22;57916;51.996;5.180;2023-02-03T01:37:52;12.60;73.40
70456;DHT22;57916;51.996;5.180;2023-02-03T01:40:19;12.60;73.30
70456;DHT22;57916;51.996;5.180;2023-02-03T01:42:46;12.60;73.20
70456;DHT22;57916;51.996;5.180;2023-02-03T01:45:13;12.60;73.20
70456;DHT22;57916;51.996;5.180;2023-02-03T01:47:48;12.60;73.20
70456;DHT22;57916;51.996;5.180;2023-02-03T01:50:24;12.60;73.30
70456;DHT22;57916;51.996;5.180;2023-02-03T01:52:57;12.60;73.30
70456;DHT22;57916;51.996;5.180;2023-02-03T01:55:29;12.50;74.20
70456;DHT22;57916;51.996;5.180;2023-02-03T01:58:07;12.50;73.40
70456;DHT22;57916;51.996;5.180;2023-02-03T02:00:35;12.50;73.30
70456;DHT22;57916;51.996;5.180;2023-02-03T02:03:04;12.50;73.30
70456;DHT22;57916;51.996;5.180;2023-02-03T02:05:37;12.50;73.30
70456;DHT22;57916;51.996;5.180;2023-02-03T02:08:06;12.60;73.20
70456;DHT22;57916;51.996;5.180;2023-02-03T02:10:34;12.60;73.20
70456;DHT22;57916;51.996;5.180;2023-02-03T02:13:02;12.50;73.00
70456;DHT22;57916;51.996;5.180;2023-02-03T02:19:43;12.50;72.80
70456;DHT22;57916;51.996;5.180;2023-02-03T02:22:13;12.50;72.70
70456;DHT22;57916;51.996;5.180;2023-02-03T02:33:35;12.50;72.50
70456;DHT22;57916;51.996;5.180;2023-02-03T02:41:48;12.60;72.00
70456;DHT22;57916;51.996;5.180;2023-02-03T02:46:58;12.60;71.80
70456;DHT22;57916;51.996;5.180;2023-02-03T02:49:46;12.60;71.80
70456;DHT22;57916;51.996;5.180;2023-02-03T02:52:16;12.70;71.80
70456;DHT22;57916;51.996;5.180;2023-02-03T02:54:48;12.70;71.80
70456;DHT22;57916;51.996;5.180;2023-02-03T02:57:19;12.70;71.70
70456;DHT22;57916;51.996;5.180;2023-02-03T02:59:48;12.60;71.70
70456;DHT22;57916;51.996;5.180;2023-02-03T03:02:15;12.60;71.80
70456;DHT22;57916;51.996;5.180;2023-02-03T03:04:45;12.60;72.00
70456;DHT22;57916;51.996;5.180;2023-02-03T03:07:18;12.60;72.10
70456;DHT22;57916;51.996;5.180;2023-02-03T03:09:54;12.50;72.20
70456;DHT22;57916;51.996;5.180;2023-02-03T03:12:33;12.60;72.30
70456;DHT22;57916;51.996;5.180;2023-02-03T03:15:09;12.50;72.30
70456;DHT22;57916;51.996;5.180;2023-02-03T03:17:41;12.50;72.40
70456;DHT22;57916;51.996;5.180;2023-02-03T03:20:13;12.50;72.40
70456;DHT22;57916;51.996;5.180;2023-02-03T03:22:44;12.60;72.50
70456;DHT22;57916;51.996;5.180;2023-02-03T03:25:20;12.60;72.40
70456;DHT22;57916;51.996;5.180;2023-02-03T03:27:54;12.60;72.20
70456;DHT22;57916;51.996;5.180;2023-02-03T03:30:25;12.60;72.20
70456;DHT22;57916;51.996;5.180;2023-02-03T03:32:55;12.60;72.20
70456;DHT22;57916;51.996;5.180;2023-02-03T03:35:22;12.60;72.20
70456;DHT22;57916;51.996;5.180;2023-02-03T03:38:02;12.60;72.10
70456;DHT22;57916;51.996;5.180;2023-02-03T03:40:51;12.60;71.90
70456;DHT22;57916;51.996;5.180;2023-02-03T03:43:21;12.60;71.70
70456;DHT22;57916;51.996;5.180;2023-02-03T03:46:00;12.60;71.80
70456;DHT22;57916;51.996;5.180;2023-02-03T03:51:33;12.70;71.80
70456;DHT22;57916;51.996;5.180;2023-02-03T03:54:08;12.70;71.60
70456;DHT22;57916;51.996;5.180;2023-02-03T03:56:57;12.70;71.50
70456;DHT22;57916;51.996;5.180;2023-02-03T03:59:29;12.70;71.40
70456;DHT22;57916;51.996;5.180;2023-02-03T04:01:58;12.70;71.30
70456;DHT22;57916;51.996;5.180;2023-02-03T04:04:32;12.80;71.30
70456;DHT22;57916;51.996;5.180;2023-02-03T04:06:59;12.70;71.10
70456;DHT22;57916;51.996;5.180;2023-02-03T04:09:26;12.70;71.10
70456;DHT22;57916;51.996;5.180;2023-02-03T04:11:53;12.70;71.10
70456;DHT22;57916;51.996;5.180;2023-02-03T04:14:29;12.70;71.00
70456;DHT22;57916;51.996;5.180;2023-02-03T04:16:57;12.70;71.00
70456;DHT22;57916;51.996;5.180;2023-02-03T04:19:24;12.80;71.10
70456;DHT22;57916;51.996;5.180;2023-02-03T04:21:51;12.80;71.00
70456;DHT22;57916;51.996;5.180;2023-02-03T04:24:18;12.80;71.10
70456;DHT22;57916;51.996;5.180;2023-02-03T04:26:45;12.80;71.10
70456;DHT22;57916;51.996;5.180;2023-02-03T04:29:12;12.80;71.10
70456;DHT22;57916;51.996;5.180;2023-02-03T04:31:39;12.80;71.10
70456;DHT22;57916;51.996;5.180;2023-02-03T04:34:06;12.80;71.00
70456;DHT22;57916;51.996;5.180;2023-02-03T04:36:33;12.80;71.00
70456;DHT22;57916;51.996;5.180;2023-02-03T04:39:00;12.80;71.00
70456;DHT22;57916;51.996;5.180;2023-02-03T04:41:26;12.80;71.10
70456;DHT22;57916;51.996;5.180;2023-02-03T04:43:53;12.80;71.00
70456;DHT22;57916;51.996;5.180;2023-02-03T04:46:20;12.80;71.20
70456;DHT22;57916;51.996;5.180;2023-02-03T04:48:48;12.80;71.10
70456;DHT22;57916;51.996;5.180;2023-02-03T04:51:15;12.80;71.00
70456;DHT22;57916;51.996;5.180;2023-02-03T04:53:41;12.80;71.10
70456;DHT22;57916;51.996;5.180;2023-02-03T04:56:08;12.80;71.10
70456;DHT22;57916;51.996;5.180;2023-02-03T04:58:35;12.80;71.00
70456;DHT22;57916;51.996;5.180;2023-02-03T05:01:09;12.80;71.20
70456;DHT22;57916;51.996;5.180;2023-02-03T05:03:36;12.80;71.10
70456;DHT22;57916;51.996;5.180;2023-02-03T05:06:03;12.80;71.10
70456;DHT22;57916;51.996;5.180;2023-02-03T05:08:31;12.80;71.10
70456;DHT22;57916;51.996;5.180;2023-02-03T05:10:58;12.80;71.00
70456;DHT22;57916;51.996;5.180;2023-02-03T05:13:28;12.80;71.10
70456;DHT22;57916;51.996;5.180;2023-02-03T05:15:55;12.80;71.10
70456;DHT22;57916;51.996;5.180;2023-02-03T05:18:21;12.80;71.00
70456;DHT22;57916;51.996;5.180;2023-02-03T05:20:48;12.80;71.20
70456;DHT22;57916;51.996;5.180;2023-02-03T05:23:15;12.80;71.10
70456;DHT22;57916;51.996;5.180;2023-02-03T05:25:43;12.80;71.40
70456;DHT22;57916;51.996;5.180;2023-02-03T05:28:10;12.80;71.20
70456;DHT22;57916;51.996;5.180;2023-02-03T05:30:37;12.80;71.10
70456;DHT22;57916;51.996;5.180;2023-02-03T05:33:05;12.80;71.20
70456;DHT22;57916;51.996;5.180;2023-02-03T05:35:31;12.80;71.20
70456;DHT22;57916;51.996;5.180;2023-02-03T05:37:59;12.80;71.20
70456;DHT22;57916;51.996;5.180;2023-02-03T05:40:26;12.80;71.10
70456;DHT22;57916;51.996;5.180;2023-02-03T05:43:12;12.80;71.20
70456;DHT22;57916;51.996;5.180;2023-02-03T05:45:39;12.80;71.20
70456;DHT22;57916;51.996;5.180;2023-02-03T05:48:08;12.80;71.20
70456;DHT22;57916;51.996;5.180;2023-02-03T05:50:36;12.80;71.20
70456;DHT22;57916;51.996;5.180;2023-02-03T05:53:07;12.80;71.20
70456;DHT22;57916;51.996;5.180;2023-02-03T05:55:35;12.70;71.20
70456;DHT22;57916;51.996;5.180;2023-02-03T05:58:02;12.70;71.20
70456;DHT22;57916;51.996;5.180;2023-02-03T06:00:29;12.70;71.30
70456;DHT22;57916;51.996;5.180;2023-02-03T06:02:58;12.80;71.30
70456;DHT22;57916;51.996;5.180;2023-02-03T06:05:26;12.80;71.20
70456;DHT22;57916;51.996;5.180;2023-02-03T06:07:53;12.70;71.20
70456;DHT22;57916;51.996;5.180;2023-02-03T06:10:21;12.70;71.20
70456;DHT22;57916;51.996;5.180;2023-02-03T06:12:48;12.70;71.30
70456;DHT22;57916;51.996;5.180;2023-02-03T06:15:16;12.70;71.30
70456;DHT22;57916;51.996;5.180;2023-02-03T06:17:47;12.80;71.40
70456;DHT22;57916;51.996;5.180;2023-02-03T06:20:16;12.80;71.30
70456;DHT22;57916;51.996;5.180;2023-02-03T06:22:43;12.70;71.30
70456;DHT22;57916;51.996;5.180;2023-02-03T06:25:10;12.70;71.40
70456;DHT22;57916;51.996;5.180;2023-02-03T06:27:39;12.70;71.40
70456;DHT22;57916;51.996;5.180;2023-02-03T06:30:07;12.70;71.40
70456;DHT22;57916;51.996;5.180;2023-02-03T06:32:34;12.70;71.40
70456;DHT22;57916;51.996;5.180;2023-02-03T06:35:01;12.70;71.40
70456;DHT22;57916;51.996;5.180;2023-02-03T06:37:28;12.70;71.30
70456;DHT22;57916;51.996;5.180;2023-02-03T06:39:55;12.70;71.40
70456;DHT22;57916;51.996;5.180;2023-02-03T06:42:22;12.70;71.50
70456;DHT22;57916;51.996;5.180;2023-02-03T06:44:48;12.70;71.50
70456;DHT22;57916;51.996;5.180;2023-02-03T06:47:15;12.70;71.40
70456;DHT22;57916;51.996;5.180;2023-02-03T06:49:42;12.70;71.50
70456;DHT22;57916;51.996;5.180;2023-02-03T06:52:09;12.70;71.50
70456;DHT22;57916;51.996;5.180;2023-02-03T06:54:36;12.70;71.70
70456;DHT22;57916;51.996;5.180;2023-02-03T06:57:03;12.70;71.70
70456;DHT22;57916;51.996;5.180;2023-02-03T06:59:29;12.70;71.70
70456;DHT22;57916;51.996;5.180;2023-02-03T07:01:56;12.70;71.80
70456;DHT22;57916;51.996;5.180;2023-02-03T07:04:23;12.70;71.80
70456;DHT22;57916;51.996;5.180;2023-02-03T07:06:50;12.70;71.90
70456;DHT22;57916;51.996;5.180;2023-02-03T07:09:17;12.70;71.90
70456;DHT22;57916;51.996;5.180;2023-02-03T07:11:44;12.70;71.90
70456;DHT22;57916;51.996;5.180;2023-02-03T07:14:11;12.70;71.90
70456;DHT22;57916;51.996;5.180;2023-02-03T07:16:37;12.70;71.90
70456;DHT22;57916;51.996;5.180;2023-02-03T07:19:04;12.70;71.90
70456;DHT22;57916;51.996;5.180;2023-02-03T07:21:31;12.70;71.90
70456;DHT22;57916;51.996;5.180;2023-02-03T07:23:58;12.70;71.90
70456;DHT22;57916;51.996;5.180;2023-02-03T07:26:25;12.70;72.00
70456;DHT22;57916;51.996;5.180;2023-02-03T07:28:52;12.70;72.80
70456;DHT22;57916;51.996;5.180;2023-02-03T07:31:20;12.70;72.10
70456;DHT22;57916;51.996;5.180;2023-02-03T07:33:47;12.70;72.20
70456;DHT22;57916;51.996;5.180;2023-02-03T07:36:14;12.70;72.10
70456;DHT22;57916;51.996;5.180;2023-02-03T07:38:41;12.70;72.10
70456;DHT22;57916;51.996;5.180;2023-02-03T07:41:08;12.70;72.10
70456;DHT22;57916;51.996;5.180;2023-02-03T07:43:35;12.80;72.20
70456;DHT22;57916;51.996;5.180;2023-02-03T07:46:02;12.70;72.20
70456;DHT22;57916;51.996;5.180;2023-02-03T07:48:28;12.80;72.20
70456;DHT22;57916;51.996;5.180;2023-02-03T07:50:55;12.80;72.20
70456;DHT22;57916;51.996;5.180;2023-02-03T07:53:22;12.80;72.20
70456;DHT22;57916;51.996;5.180;2023-02-03T07:55:49;12.80;72.20
70456;DHT22;57916;51.996;5.180;2023-02-03T07:58:16;12.80;72.20
70456;DHT22;57916;51.996;5.180;2023-02-03T08:00:43;12.80;72.40
70456;DHT22;57916;51.996;5.180;2023-02-03T08:03:10;12.80;72.30
70456;DHT22;57916;51.996;5.180;2023-02-03T08:05:37;12.80;72.40
70456;DHT22;57916;51.996;5.180;2023-02-03T08:08:04;12.80;72.50
70456;DHT22;57916;51.996;5.180;2023-02-03T08:10:31;12.80;72.30
70456;DHT22;57916;51.996;5.180;2023-02-03T08:12:58;12.80;72.30
70456;DHT22;57916;51.996;5.180;2023-02-03T08:15:24;12.90;72.30
70456;DHT22;57916;51.996;5.180;2023-02-03T08:17:51;12.90;72.30
70456;DHT22;57916;51.996;5.180;2023-02-03T08:20:18;12.90;72.30
70456;DHT22;57916;51.996;5.180;2023-02-03T08:22:45;12.90;72.30
70456;DHT22;57916;51.996;5.180;2023-02-03T08:25:12;12.90;72.40
70456;DHT22;57916;51.996;5.180;2023-02-03T08:27:39;12.90;72.40
70456;DHT22;57916;51.996;5.180;2023-02-03T08:30:09;12.90;72.30
70456;DHT22;57916;51.996;5.180;2023-02-03T08:32:37;12.90;72.30
70456;DHT22;57916;51.996;5.180;2023-02-03T08:35:04;13.00;72.30
70456;DHT22;57916;51.996;5.180;2023-02-03T08:37:31;13.00;72.20
70456;DHT22;57916;51.996;5.180;2023-02-03T08:39:58;13.00;72.20
70456;DHT22;57916;51.996;5.180;2023-02-03T08:42:26;13.00;72.20
70456;DHT22;57916;51.996;5.180;2023-02-03T08:44:52;13.00;72.10
70456;DHT22;57916;51.996;5.180;2023-02-03T08:47:19;13.10;72.20
70456;DHT22;57916;51.996;5.180;2023-02-03T08:49:46;13.10;72.10
70456;DHT22;57916;51.996;5.180;2023-02-03T08:52:14;13.10;72.10
70456;DHT22;57916;51.996;5.180;2023-02-03T08:54:45;13.10;71.90
70456;DHT22;57916;51.996;5.180;2023-02-03T08:57:12;13.20;72.00
70456;DHT22;57916;51.996;5.180;2023-02-03T08:59:40;13.20;71.90
70456;DHT22;57916;51.996;5.180;2023-02-03T09:02:13;13.20;71.80
70456;DHT22;57916;51.996;5.180;2023-02-03T09:04:40;13.20;71.90
70456;DHT22;57916;51.996;5.180;2023-02-03T09:07:07;13.30;71.90
70456;DHT22;57916;51.996;5.180;2023-02-03T09:09:34;13.30;71.80
70456;DHT22;57916;51.996;5.180;2023-02-03T09:12:01;13.30;71.70
70456;DHT22;57916;51.996;5.180;2023-02-03T09:14:29;13.40;71.80
70456;DHT22;57916;51.996;5.180;2023-02-03T09:16:55;13.40;71.60
70456;DHT22;57916;51.996;5.180;2023-02-03T09:19:22;13.40;71.50
70456;DHT22;57916;51.996;5.180;2023-02-03T09:21:50;13.50;71.60
70456;DHT22;57916;51.996;5.180;2023-02-03T09:24:17;13.50;71.60
70456;DHT22;57916;51.996;5.180;2023-02-03T09:26:44;13.50;71.50
70456;DHT22;57916;51.996;5.180;2023-02-03T09:29:13;13.50;71.50
70456;DHT22;57916;51.996;5.180;2023-02-03T09:31:40;13.50;71.40
70456;DHT22;57916;51.996;5.180;2023-02-03T09:34:07;13.60;71.50
70456;DHT22;57916;51.996;5.180;2023-02-03T09:36:34;13.60;71.40
70456;DHT22;57916;51.996;5.180;2023-02-03T09:39:03;13.60;71.20
70456;DHT22;57916;51.996;5.180;2023-02-03T09:41:50;13.60;71.30
70456;DHT22;57916;51.996;5.180;2023-02-03T09:44:33;13.60;71.50
70456;DHT22;57916;51.996;5.180;2023-02-03T09:47:15;13.60;71.30
70456;DHT22;57916;51.996;5.180;2023-02-03T09:49:54;13.70;71.40
70456;DHT22;57916;51.996;5.180;2023-02-03T09:52:30;13.70;71.20
70456;DHT22;57916;51.996;5.180;2023-02-03T09:57:44;13.70;71.00
70456;DHT22;57916;51.996;5.180;2023-02-03T10:00:20;13.70;71.00
70456;DHT22;57916;51.996;5.180;2023-02-03T10:03:07;13.80;71.10
70456;DHT22;57916;51.996;5.180;2023-02-03T10:06:10;13.80;71.00
70456;DHT22;57916;51.996;5.180;2023-02-03T10:17:29;13.80;71.00
70456;DHT22;57916;51.996;5.180;2023-02-03T10:20:02;13.90;70.90
70456;DHT22;57916;51.996;5.180;2023-02-03T10:22:40;13.80;70.70
70456;DHT22;57916;51.996;5.180;2023-02-03T10:25:23;13.80;70.60
70456;DHT22;57916;51.996;5.180;2023-02-03T10:27:55;13.80;70.50
70456;DHT22;57916;51.996;5.180;2023-02-03T10:30:32;13.80;70.60
70456;DHT22;57916;51.996;5.180;2023-02-03T10:33:12;13.90;70.80
70456;DHT22;57916;51.996;5.180;2023-02-03T10:41:02;13.90;70.60
70456;DHT22;57916;51.996;5.180;2023-02-03T10:43:30;13.90;70.40
70456;DHT22;57916;51.996;5.180;2023-02-03T10:46:14;13.90;70.30
70456;DHT22;57916;51.996;5.180;2023-02-03T10:48:41;13.90;70.60
70456;DHT22;57916;51.996;5.180;2023-02-03T10:51:31;13.90;70.30
70456;DHT22;57916;51.996;5.180;2023-02-03T10:54:00;14.00;70.50
70456;DHT22;57916;51.996;5.180;2023-02-03T10:56:35;14.00;70.40
70456;DHT22;57916;51.996;5.180;2023-02-03T10:59:03;14.00;70.30
70456;DHT22;57916;51.996;5.180;2023-02-03T11:01:41;14.00;70.50
70456;DHT22;57916;51.996;5.180;2023-02-03T11:12:14;14.10;70.10
70456;DHT22;57916;51.996;5.180;2023-02-03T11:14:46;14.10;70.10
70456;DHT22;57916;51.996;5.180;2023-02-03T11:17:19;14.10;70.30
70456;DHT22;57916;51.996;5.180;2023-02-03T11:19:50;14.20;70.20
70456;DHT22;57916;51.996;5.180;2023-02-03T11:22:36;14.20;70.10
70456;DHT22;57916;51.996;5.180;2023-02-03T11:25:19;14.30;70.00
70456;DHT22;57916;51.996;5.180;2023-02-03T11:27:46;14.30;69.70
70456;DHT22;57916;51.996;5.180;2023-02-03T11:32:43;14.30;69.90
70456;DHT22;57916;51.996;5.180;2023-02-03T11:37:40;14.30;69.90
70456;DHT22;57916;51.996;5.180;2023-02-03T11:42:37;14.30;69.80
70456;DHT22;57916;51.996;5.180;2023-02-03T11:45:40;14.40;70.00
70456;DHT22;57916;51.996;5.180;2023-02-03T11:59:30;14.50;69.50
70456;DHT22;57916;51.996;5.180;2023-02-03T12:02:42;14.60;69.50
70456;DHT22;57916;51.996;5.180;2023-02-03T12:10:55;14.60;69.20
70456;DHT22;57916;51.996;5.180;2023-02-03T12:13:46;14.60;69.10
70456;DHT22;57916;51.996;5.180;2023-02-03T12:16:41;14.60;69.20
70456;DHT22;57916;51.996;5.180;2023-02-03T12:25:32;14.60;69.40
70456;DHT22;57916;51.996;5.180;2023-02-03T12:31:29;14.70;69.00
70456;DHT22;57916;51.996;5.180;2023-02-03T12:34:18;14.70;68.70
70456;DHT22;57916;51.996;5.180;2023-02-03T12:37:09;14.70;68.60
70456;DHT22;57916;51.996;5.180;2023-02-03T12:39:44;14.60;68.70
70456;DHT22;57916;51.996;5.180;2023-02-03T12:47:39;14.50;69.20
70456;DHT22;57916;51.996;5.180;2023-02-03T12:50:43;14.50;69.20
70456;DHT22;57916;51.996;5.180;2023-02-03T12:53:29;14.50;69.10
70456;DHT22;57916;51.996;5.180;2023-02-03T12:56:36;14.50;69.10
70456;DHT22;57916;51.996;5.180;2023-02-03T12:58:59;14.50;69.00
70456;DHT22;57916;51.996;5.180;2023-02-03T13:01:32;14.50;69.10
70456;DHT22;57916;51.996;5.180;2023-02-03T13:04:20;14.50;68.90
70456;DHT22;57916;51.996;5.180;2023-02-03T13:09:32;14.50;69.00
70456;DHT22;57916;51.996;5.180;2023-02-03T13:14:43;14.40;69.30
70456;DHT22;57916;51.996;5.180;2023-02-03T13:17:17;14.40;69.60
70456;DHT22;57916;51.996;5.180;2023-02-03T13:19:52;14.40;69.60
70456;DHT22;57916;51.996;5.180;2023-02-03T13:22:21;14.40;69.40
70456;DHT22;57916;51.996;5.180;2023-02-03T13:30:05;14.30;69.90
70456;DHT22;57916;51.996;5.180;2023-02-03T13:43:40;14.30;70.10
70456;DHT22;57916;51.996;5.180;2023-02-03T13:46:23;14.30;70.10
70456;DHT22;57916;51.996;5.180;2023-02-03T13:48:52;14.30;69.90
70456;DHT22;57916;51.996;5.180;2023-02-03T13:51:23;14.30;69.70
70456;DHT22;57916;51.996;5.180;2023-02-03T13:53:58;14.30;69.90
70456;DHT22;57916;51.996;5.180;2023-02-03T13:56:26;14.20;70.00
70456;DHT22;57916;51.996;5.180;2023-02-03T14:01:42;14.20;70.10
70456;DHT22;57916;51.996;5.180;2023-02-03T14:09:38;14.30;70.20
70456;DHT22;57916;51.996;5.180;2023-02-03T14:12:20;14.20;70.20
70456;DHT22;57916;51.996;5.180;2023-02-03T14:17:53;14.20;70.20
70456;DHT22;57916;51.996;5.180;2023-02-03T14:23:15;14.20;70.20
70456;DHT22;57916;51.996;5.180;2023-02-03T14:25:50;14.20;70.20
70456;DHT22;57916;51.996;5.180;2023-02-03T14:28:25;14.10;70.10
70456;DHT22;57916;51.996;5.180;2023-02-03T14:36:30;14.10;70.10
70456;DHT22;57916;51.996;5.180;2023-02-03T14:39:20;14.10;70.00
70456;DHT22;57916;51.996;5.180;2023-02-03T14:50:19;14.10;69.90
70456;DHT22;57916;51.996;5.180;2023-02-03T14:59:01;14.10;69.60
70456;DHT22;57916;51.996;5.180;2023-02-03T15:06:41;14.10;69.60
70456;DHT22;57916;51.996;5.180;2023-02-03T15:12:24;14.00;69.50
70456;DHT22;57916;51.996;5.180;2023-02-03T15:15:21;14.10;69.30
70456;DHT22;57916;51.996;5.180;2023-02-03T15:17:54;14.10;69.50
70456;DHT22;57916;51.996;5.180;2023-02-03T15:20:30;14.10;69.30
70456;DHT22;57916;51.996;5.180;2023-02-03T15:22:57;14.00;69.10
70456;DHT22;57916;51.996;5.180;2023-02-03T15:25:26;14.00;69.10
70456;DHT22;57916;51.996;5.180;2023-02-03T15:28:12;14.00;69.10
70456;DHT22;57916;51.996;5.180;2023-02-03T15:30:39;14.00;69.10
70456;DHT22;57916;51.996;5.180;2023-02-03T15:33:12;13.90;69.10
70456;DHT22;57916;51.996;5.180;2023-02-03T15:35:42;13.90;69.20
70456;DHT22;57916;51.996;5.180;2023-02-03T15:38:19;13.90;69.30
70456;DHT22;57916;51.996;5.180;2023-02-03T15:40:53;13.90;69.40
70456;DHT22;57916;51.996;5.180;2023-02-03T15:43:37;13.90;69.30
70456;DHT22;57916;51.996;5.180;2023-02-03T15:46:19;13.80;69.40
70456;DHT22;57916;51.996;5.180;2023-02-03T15:51:42;13.80;69.50
70456;DHT22;57916;51.996;5.180;2023-02-03T15:54:29;13.70;69.70
70456;DHT22;57916;51.996;5.180;2023-02-03T15:57:08;13.70;69.80
70456;DHT22;57916;51.996;5.180;2023-02-03T15:59:54;13.70;69.70
70456;DHT22;57916;51.996;5.180;2023-02-03T16:02:31;13.70;69.70
70456;DHT22;57916;51.996;5.180;2023-02-03T16:05:20;13.60;69.60
70456;DHT22;57916;51.996;5.180;2023-02-03T16:07:49;13.60;69.80
70456;DHT22;57916;51.996;5.180;2023-02-03T16:10:32;13.60;69.80
70456;DHT22;57916;51.996;5.180;2023-02-03T16:13:31;13.50;69.70
70456;DHT22;57916;51.996;5.180;2023-02-03T16:16:05;13.50;69.70
70456;DHT22;57916;51.996;5.180;2023-02-03T16:18:34;13.50;69.90
70456;DHT22;57916;51.996;5.180;2023-02-03T16:21:03;13.40;69.90
70456;DHT22;57916;51.996;5.180;2023-02-03T16:23:30;13.40;70.10
70456;DHT22;57916;51.996;5.180;2023-02-03T16:26:15;13.40;70.30
70456;DHT22;57916;51.996;5.180;2023-02-03T16:28:53;13.40;70.40
70456;DHT22;57916;51.996;5.180;2023-02-03T16:31:43;13.30;70.50
70456;DHT22;57916;51.996;5.180;2023-02-03T16:34:30;13.30;70.50
70456;DHT22;57916;51.996;5.180;2023-02-03T16:37:33;13.30;70.40
70456;DHT22;57916;51.996;5.180;2023-02-03T16:40:21;13.30;70.30
70456;DHT22;57916;51.996;5.180;2023-02-03T16:43:13;13.30;70.30
70456;DHT22;57916;51.996;5.180;2023-02-03T16:46:00;13.30;70.30
70456;DHT22;57916;51.996;5.180;2023-02-03T16:48:46;13.20;70.30
70456;DHT22;57916;51.996;5.180;2023-02-03T16:51:39;13.20;70.40
70456;DHT22;57916;51.996;5.180;2023-02-03T16:54:10;13.20;70.40
70456;DHT22;57916;51.996;5.180;2023-02-03T16:56:39;13.20;70.40
70456;DHT22;57916;51.996;5.180;2023-02-03T16:59:06;13.20;70.50
70456;DHT22;57916;51.996;5.180;2023-02-03T17:01:33;13.20;70.60
70456;DHT22;57916;51.996;5.180;2023-02-03T17:04:00;13.30;70.80
70456;DHT22;57916;51.996;5.180;2023-02-03T17:06:27;13.30;71.00
70456;DHT22;57916;51.996;5.180;2023-02-03T17:08:54;13.30;71.10
70456;DHT22;57916;51.996;5.180;2023-02-03T17:11:24;13.30;71.30
70456;DHT22;57916;51.996;5.180;2023-02-03T17:13:52;13.30;71.40
70456;DHT22;57916;51.996;5.180;2023-02-03T17:16:22;13.30;71.50
70456;DHT22;57916;51.996;5.180;2023-02-03T17:18:49;13.30;71.50
70456;DHT22;57916;51.996;5.180;2023-02-03T17:21:20;13.30;71.50
70456;DHT22;57916;51.996;5.180;2023-02-03T17:23:47;13.30;71.70
70456;DHT22;57916;51.996;5.180;2023-02-03T17:26:14;13.20;71.70
70456;DHT22;57916;51.996;5.180;2023-02-03T17:28:41;13.20;71.70
70456;DHT22;57916;51.996;5.180;2023-02-03T17:31:15;13.20;71.60
70456;DHT22;57916;51.996;5.180;2023-02-03T17:33:43;13.20;71.50
70456;DHT22;57916;51.996;5.180;2023-02-03T17:36:11;13.20;71.30
70456;DHT22;57916;51.996;5.180;2023-02-03T17:38:41;13.20;71.20
70456;DHT22;57916;51.996;5.180;2023-02-03T17:41:25;13.10;70.60
70456;DHT22;57916;51.996;5.180;2023-02-03T17:44:11;13.10;70.60
70456;DHT22;57916;51.996;5.180;2023-02-03T17:46:56;13.10;70.60
70456;DHT22;57916;51.996;5.180;2023-02-03T17:49:40;13.10;70.20
70456;DHT22;57916;51.996;5.180;2023-02-03T17:52:25;13.10;69.70
70456;DHT22;57916;51.996;5.180;2023-02-03T17:55:09;13.10;69.30
70456;DHT22;57916;51.996;5.180;2023-02-03T17:57:37;13.10;69.10
70456;DHT22;57916;51.996;5.180;2023-02-03T18:00:05;13.10;68.60
70456;DHT22;57916;51.996;5.180;2023-02-03T18:02:38;13.20;68.20
70456;DHT22;57916;51.996;5.180;2023-02-03T18:05:05;13.20;67.80
70456;DHT22;57916;51.996;5.180;2023-02-03T18:07:32;13.20;67.70
70456;DHT22;57916;51.996;5.180;2023-02-03T18:09:59;13.20;67.20
70456;DHT22;57916;51.996;5.180;2023-02-03T18:12:26;13.10;66.90
70456;DHT22;57916;51.996;5.180;2023-02-03T18:14:53;13.20;66.70
70456;DHT22;57916;51.996;5.180;2023-02-03T18:17:21;13.20;66.50
70456;DHT22;57916;51.996;5.180;2023-02-03T18:19:48;13.20;66.40
70456;DHT22;57916;51.996;5.180;2023-02-03T18:22:22;13.20;66.00
70456;DHT22;57916;51.996;5.180;2023-02-03T18:24:49;13.30;66.00
70456;DHT22;57916;51.996;5.180;2023-02-03T18:27:20;13.30;65.80
70456;DHT22;57916;51.996;5.180;2023-02-03T18:29:47;13.30;65.50
70456;DHT22;57916;51.996;5.180;2023-02-03T18:32:14;13.30;65.50
70456;DHT22;57916;51.996;5.180;2023-02-03T18:34:42;13.30;65.20